createdAt,value
2023-10-20T00:01:49.677Z,50.35
2023-10-20T00:04:16.456Z,49.53
2023-10-20T00:06:42.954Z,59.03
2023-10-20T00:09:10.620Z,47.97
2023-10-20T00:11:37.118Z,49.70
2023-10-20T00:14:03.622Z,52.35
2023-10-20T00:16:30.455Z,49.38
2023-10-20T00:18:57.425Z,55.92
2023-10-20T00:21:26.763Z,55.35
2023-10-20T00:23:56.088Z,62.13
2023-10-20T00:26:22.537Z,53.63
2023-10-20T00:28:48.961Z,59.17
2023-10-20T00:31:15.321Z,52.70
2023-10-20T00:33:42.008Z,56.28
2023-10-20T00:36:08.483Z,53.95
2023-10-20T00:38:35.297Z,60.65
2023-10-20T00:41:01.904Z,53.83
2023-10-20T00:43:35.689Z,59.35
2023-10-20T00:46:02.897Z,60.83
2023-10-20T00:48:29.834Z,63.22
2023-10-20T00:50:56.403Z,62.35
2023-10-20T00:53:23.065Z,62.15
2023-10-20T00:55:49.692Z,67.00
2023-10-20T00:58:19.193Z,64.03
2023-10-20T01:00:45.751Z,56.17
2023-10-20T01:03:12.436Z,60.42
2023-10-20T01:05:39.631Z,64.57
2023-10-20T01:08:06.619Z,57.28
2023-10-20T01:10:33.054Z,52.25
2023-10-20T01:12:59.591Z,63.30
2023-10-20T01:15:26.314Z,60.05
2023-10-20T01:17:52.916Z,66.65
2023-10-20T01:20:19.651Z,58.92
2023-10-20T01:22:46.140Z,59.92
2023-10-20T01:25:12.619Z,56.38
2023-10-20T01:27:39.212Z,57.70
2023-10-20T01:30:06.243Z,61.05
2023-10-20T01:32:32.926Z,64.80
2023-10-20T01:34:59.512Z,60.90
2023-10-20T01:37:26.206Z,60.97
2023-10-20T01:39:52.688Z,61.08
2023-10-20T01:42:19.345Z,65.03
2023-10-20T01:44:45.736Z,59.10
2023-10-20T01:47:12.203Z,53.83
2023-10-20T01:49:38.732Z,59.50
2023-10-20T01:52:05.120Z,54.83
2023-10-20T01:54:31.842Z,48.67
2023-10-20T01:56:58.420Z,66.85
2023-10-20T01:59:28.509Z,58.33
2023-10-20T02:01:55.047Z,54.85
2023-10-20T02:04:21.607Z,60.33
2023-10-20T02:06:48.084Z,50.00
2023-10-20T02:09:14.443Z,74.40
2023-10-20T02:11:40.875Z,70.50
2023-10-20T02:14:07.391Z,66.28
2023-10-20T02:16:34.389Z,53.22
2023-10-20T02:19:00.972Z,75.30
2023-10-20T02:21:29.710Z,55.60
2023-10-20T02:23:58.684Z,56.10
2023-10-20T02:26:25.188Z,57.35
2023-10-20T02:28:51.788Z,59.35
2023-10-20T02:31:19.010Z,60.42
2023-10-20T02:33:45.648Z,51.45
2023-10-20T02:36:23.018Z,64.28
2023-10-20T02:38:51.674Z,52.85
2023-10-20T02:41:18.150Z,64.72
2023-10-20T02:43:44.679Z,54.30
2023-10-20T02:46:11.243Z,53.63
2023-10-20T02:48:37.962Z,52.28
2023-10-20T02:51:12.110Z,56.30
2023-10-20T02:53:38.884Z,52.53
2023-10-20T02:56:11.116Z,60.90
2023-10-20T02:58:37.578Z,45.28
2023-10-20T03:01:06.759Z,57.72
2023-10-20T03:03:33.696Z,54.20
2023-10-20T03:06:01.292Z,58.80
2023-10-20T03:08:31.750Z,65.40
2023-10-20T03:11:01.491Z,61.30
2023-10-20T03:13:30.808Z,74.07
2023-10-20T03:15:57.337Z,75.43
2023-10-20T03:18:23.991Z,60.83
2023-10-20T03:20:51.407Z,66.30
2023-10-20T03:23:18.706Z,61.88
2023-10-20T03:25:45.405Z,72.97
2023-10-20T03:28:11.871Z,48.60
2023-10-20T03:30:39.323Z,71.90
2023-10-20T03:33:07.436Z,56.47
2023-10-20T03:35:34.739Z,63.25
2023-10-20T03:38:01.881Z,69.35
2023-10-20T03:40:31.740Z,66.63
2023-10-20T03:43:00.993Z,64.28
2023-10-20T03:45:27.433Z,62.22
2023-10-20T03:47:59.435Z,73.68
2023-10-20T03:50:26.001Z,54.88
2023-10-20T03:52:54.912Z,68.25
2023-10-20T03:55:21.346Z,70.47
2023-10-20T03:57:47.947Z,85.22
2023-10-20T04:00:15.637Z,81.32
2023-10-20T04:02:42.377Z,69.00
2023-10-20T04:05:09.162Z,68.07
2023-10-20T04:07:35.550Z,59.80
2023-10-20T04:10:02.005Z,62.03
2023-10-20T04:12:31.199Z,77.55
2023-10-20T04:14:57.670Z,67.55
2023-10-20T04:17:24.707Z,63.45
2023-10-20T04:19:51.238Z,72.40
2023-10-20T04:22:18.109Z,57.63
2023-10-20T04:24:44.573Z,74.55
2023-10-20T04:27:12.878Z,68.57
2023-10-20T04:29:39.356Z,65.30
2023-10-20T04:32:05.884Z,64.93
2023-10-20T04:34:32.696Z,66.53
2023-10-20T04:36:59.309Z,74.82
2023-10-20T04:39:25.840Z,72.57
2023-10-20T04:42:00.536Z,75.05
2023-10-20T04:44:27.554Z,55.40
2023-10-20T04:46:58.225Z,62.00
2023-10-20T04:49:30.443Z,70.03
2023-10-20T04:51:58.212Z,60.35
2023-10-20T04:54:24.715Z,56.95
2023-10-20T04:56:51.351Z,71.70
2023-10-20T04:59:20.334Z,59.97
2023-10-20T05:01:46.831Z,69.60
2023-10-20T05:04:15.657Z,64.72
2023-10-20T05:06:45.209Z,68.13
2023-10-20T05:09:12.253Z,65.93
2023-10-20T05:11:38.842Z,53.35
2023-10-20T05:14:05.432Z,66.72
2023-10-20T05:16:32.110Z,61.03
2023-10-20T05:19:01.873Z,66.10
2023-10-20T05:21:31.849Z,60.28
2023-10-20T05:23:58.247Z,58.65
2023-10-20T05:26:24.761Z,63.45
2023-10-20T05:28:51.246Z,60.70
2023-10-20T05:31:22.987Z,60.60
2023-10-20T05:33:49.607Z,61.45
2023-10-20T05:36:16.104Z,48.95
2023-10-20T05:38:42.733Z,59.80
2023-10-20T05:41:11.720Z,62.85
2023-10-20T05:43:39.155Z,75.60
2023-10-20T05:46:07.985Z,60.60
2023-10-20T05:48:37.259Z,63.88
2023-10-20T05:51:06.167Z,63.67
2023-10-20T05:53:32.846Z,57.63
2023-10-20T05:56:01.875Z,55.67
2023-10-20T05:58:28.301Z,54.90
2023-10-20T06:01:03.134Z,64.80
2023-10-20T06:03:30.482Z,63.78
2023-10-20T06:06:01.143Z,57.10
2023-10-20T06:08:29.396Z,54.33
2023-10-20T06:11:08.498Z,57.35
2023-10-20T06:13:37.876Z,61.63
2023-10-20T06:16:06.309Z,57.95
2023-10-20T06:18:36.124Z,54.20
2023-10-20T06:21:05.067Z,43.92
2023-10-20T06:23:32.176Z,51.78
2023-10-20T06:26:02.179Z,49.35
2023-10-20T06:28:29.669Z,53.50
2023-10-20T06:30:56.234Z,52.65
2023-10-20T06:33:22.699Z,43.10
2023-10-20T06:35:50.888Z,53.17
2023-10-20T06:38:18.560Z,48.60
2023-10-20T06:40:45.134Z,48.70
2023-10-20T06:43:11.642Z,52.15
2023-10-20T06:45:38.295Z,55.92
2023-10-20T06:48:08.178Z,48.03
2023-10-20T06:50:37.568Z,44.70
2023-10-20T06:53:08.708Z,33.28
2023-10-20T06:56:00.583Z,32.17
2023-10-20T06:58:29.009Z,32.65
2023-10-20T07:00:55.433Z,39.38
2023-10-20T07:03:22.089Z,34.47
2023-10-20T07:05:48.855Z,31.70
2023-10-20T07:08:15.375Z,34.65
2023-10-20T07:10:41.938Z,45.67
2023-10-20T07:13:09.956Z,31.52
2023-10-20T07:15:36.786Z,40.42
2023-10-20T07:18:07.051Z,31.40
2023-10-20T07:20:41.149Z,41.55
2023-10-20T07:23:07.697Z,29.60
2023-10-20T07:25:35.256Z,33.78
2023-10-20T07:28:02.621Z,27.95
2023-10-20T07:30:32.522Z,28.02
2023-10-20T07:33:01.512Z,28.58
2023-10-20T07:35:28.358Z,23.50
2023-10-20T07:37:55.020Z,24.55
2023-10-20T07:40:21.574Z,20.27
2023-10-20T07:42:48.174Z,19.65
2023-10-20T07:45:14.958Z,18.45
2023-10-20T07:47:41.629Z,15.48
2023-10-20T07:50:08.462Z,17.58
2023-10-20T07:52:37.967Z,17.45
2023-10-20T07:55:05.592Z,17.13
2023-10-20T07:57:32.344Z,14.23
2023-10-20T08:00:00.397Z,14.43
2023-10-20T08:02:26.997Z,10.90
2023-10-20T08:04:56.777Z,17.48
2023-10-20T08:07:23.813Z,12.65
2023-10-20T08:09:50.469Z,13.45
2023-10-20T08:12:17.084Z,12.52
2023-10-20T08:14:43.727Z,11.32
2023-10-20T08:17:10.228Z,9.45
2023-10-20T08:19:36.952Z,12.50
2023-10-20T08:22:03.393Z,14.25
2023-10-20T08:24:30.035Z,9.13
2023-10-20T08:26:56.548Z,8.65
2023-10-20T08:29:23.151Z,8.75
2023-10-20T08:31:49.673Z,8.23
2023-10-20T08:34:16.244Z,7.35
2023-10-20T08:36:42.708Z,10.25
2023-10-20T08:39:09.354Z,6.85
2023-10-20T08:41:35.892Z,6.57
2023-10-20T08:44:37.355Z,8.45
2023-10-20T08:47:04.804Z,9.73
2023-10-20T08:49:31.588Z,6.72
2023-10-20T08:52:04.369Z,7.43
2023-10-20T08:54:31.813Z,8.57
2023-10-20T08:57:07.397Z,6.20
2023-10-20T08:59:35.443Z,6.40
2023-10-20T09:02:02.473Z,5.30
2023-10-20T09:04:32.011Z,6.30
2023-10-20T09:07:00.412Z,6.43
2023-10-20T09:09:27.056Z,7.75
2023-10-20T09:11:56.402Z,6.00
2023-10-20T09:14:23.048Z,7.80
2023-10-20T09:16:51.278Z,6.72
2023-10-20T09:19:17.891Z,9.65
2023-10-20T09:21:46.202Z,7.28
2023-10-20T09:24:15.587Z,6.20
2023-10-20T09:26:42.244Z,7.30
2023-10-20T09:29:09.857Z,5.18
2023-10-20T09:31:37.995Z,7.53
2023-10-20T09:34:04.847Z,11.75
2023-10-20T09:36:33.085Z,5.15
2023-10-20T09:39:25.642Z,5.07
2023-10-20T09:41:59.898Z,5.40
2023-10-20T09:44:46.813Z,5.18
2023-10-20T09:47:36.492Z,5.75
2023-10-20T09:50:03.238Z,4.70
2023-10-20T09:52:33.148Z,6.95
2023-10-20T09:55:02.828Z,4.53
2023-10-20T09:57:32.163Z,4.40
2023-10-20T10:00:00.613Z,6.72
2023-10-20T10:02:30.916Z,4.15
2023-10-20T10:04:58.958Z,6.63
2023-10-20T10:07:38.248Z,4.60
2023-10-20T10:10:09.074Z,4.32
2023-10-20T10:12:35.779Z,6.83
2023-10-20T10:15:07.661Z,4.95
2023-10-20T10:20:43.770Z,4.63
2023-10-20T10:23:11.993Z,3.35
2023-10-20T10:25:43.343Z,4.20
2023-10-20T10:28:14.795Z,5.05
2023-10-20T10:30:43.658Z,4.43
2023-10-20T10:33:12.351Z,7.25
2023-10-20T10:35:40.177Z,7.75
2023-10-20T10:38:18.580Z,5.32
2023-10-20T10:40:46.774Z,3.97
2023-10-20T10:43:18.040Z,7.40
2023-10-20T10:45:44.859Z,3.17
2023-10-20T10:48:15.044Z,5.22
2023-10-20T10:50:43.580Z,3.35
2023-10-20T10:53:11.293Z,6.93
2023-10-20T10:55:38.490Z,3.65
2023-10-20T10:58:10.641Z,3.42
2023-10-20T11:00:39.144Z,3.35
2023-10-20T11:03:10.261Z,3.08
2023-10-20T11:05:41.255Z,6.88
2023-10-20T11:08:09.624Z,3.67
2023-10-20T11:10:38.900Z,3.67
2023-10-20T11:13:12.310Z,3.70
2023-10-20T11:15:41.138Z,2.72
2023-10-20T11:18:11.385Z,2.63
2023-10-20T11:20:42.696Z,6.05
2023-10-20T11:23:10.706Z,2.85
2023-10-20T11:25:38.550Z,3.47
2023-10-20T11:28:08.205Z,2.53
2023-10-20T11:30:37.310Z,2.83
2023-10-20T11:33:05.371Z,2.53
2023-10-20T11:35:32.186Z,5.35
2023-10-20T11:37:59.584Z,4.18
2023-10-20T11:40:26.872Z,3.63
2023-10-20T11:42:59.348Z,4.90
2023-10-20T11:45:26.073Z,2.83
2023-10-20T11:47:53.039Z,2.28
2023-10-20T11:50:22.636Z,2.17
2023-10-20T11:52:49.492Z,2.20
2023-10-20T11:55:15.947Z,1.70
2023-10-20T11:57:43.097Z,1.92
2023-10-20T12:00:10.341Z,2.08
2023-10-20T12:02:41.077Z,2.72
2023-10-20T12:05:08.750Z,2.75
2023-10-20T12:07:38.813Z,1.30
2023-10-20T12:10:08.594Z,3.03
2023-10-20T12:12:38.228Z,1.63
2023-10-20T12:15:06.923Z,1.20
2023-10-20T12:17:33.510Z,1.25
2023-10-20T12:20:00.080Z,2.40
2023-10-20T12:22:26.474Z,1.65
2023-10-20T12:24:52.891Z,3.95
2023-10-20T12:27:19.320Z,1.55
2023-10-20T12:29:45.983Z,1.70
2023-10-20T12:32:12.491Z,3.35
2023-10-20T12:34:39.506Z,1.30
2023-10-20T12:37:06.094Z,1.40
2023-10-20T12:39:33.030Z,1.00
2023-10-20T12:42:02.654Z,1.70
2023-10-20T12:44:33.787Z,1.17
2023-10-20T12:47:00.676Z,1.05
2023-10-20T12:49:27.133Z,1.45
2023-10-20T12:51:56.758Z,2.28
2023-10-20T12:54:23.267Z,1.90
2023-10-20T12:56:49.700Z,1.25
2023-10-20T12:59:18.748Z,5.75
2023-10-20T13:01:45.476Z,1.73
2023-10-20T13:04:13.224Z,1.00
2023-10-20T13:06:53.792Z,1.27
2023-10-20T13:09:25.582Z,3.75
2023-10-20T13:11:56.174Z,1.10
2023-10-20T13:14:23.012Z,1.90
2023-10-20T13:16:49.836Z,1.05
2023-10-20T13:19:16.531Z,1.38
2023-10-20T13:21:43.749Z,2.65
2023-10-20T13:24:13.177Z,3.22
2023-10-20T13:26:39.837Z,0.73
2023-10-20T13:29:06.532Z,0.60
2023-10-20T13:31:35.301Z,1.45
2023-10-20T13:34:02.205Z,0.90
2023-10-20T13:36:31.139Z,0.93
2023-10-20T13:38:58.060Z,1.40
2023-10-20T13:41:25.814Z,4.05
2023-10-20T13:43:54.915Z,0.95
2023-10-20T13:46:21.790Z,1.20
2023-10-20T13:48:48.727Z,2.10
2023-10-20T13:51:15.391Z,0.70
2023-10-20T13:53:41.910Z,1.30
2023-10-20T13:56:08.433Z,3.42
2023-10-20T13:58:35.060Z,0.65
2023-10-20T14:01:10.361Z,1.55
2023-10-20T14:03:36.975Z,0.88
2023-10-20T14:06:05.451Z,0.70
2023-10-20T14:08:32.221Z,3.40
2023-10-20T14:10:59.914Z,1.42
2023-10-20T14:13:26.456Z,0.70
2023-10-20T14:15:53.014Z,3.22
2023-10-20T14:18:19.545Z,0.90
2023-10-20T14:20:46.145Z,0.95
2023-10-20T14:23:12.559Z,1.30
2023-10-20T14:25:39.050Z,1.15
2023-10-20T14:28:07.178Z,1.85
2023-10-20T14:30:34.704Z,2.00
2023-10-20T14:33:01.389Z,1.52
2023-10-20T14:35:28.504Z,1.02
2023-10-20T14:37:56.612Z,1.15
2023-10-20T14:40:23.037Z,1.13
2023-10-20T14:42:49.480Z,0.95
2023-10-20T14:45:15.945Z,1.95
2023-10-20T14:47:42.606Z,2.53
2023-10-20T14:50:09.346Z,1.27
2023-10-20T14:52:38.884Z,1.88
2023-10-20T14:55:09.107Z,2.08
2023-10-20T14:57:39.249Z,1.15
2023-10-20T15:00:07.514Z,1.65
2023-10-20T15:02:33.953Z,2.22
2023-10-20T15:05:03.708Z,1.25
2023-10-20T15:07:33.815Z,4.13
2023-10-20T15:10:03.580Z,2.00
2023-10-20T15:12:30.062Z,1.55
2023-10-20T15:14:56.561Z,1.98
2023-10-20T15:17:56.662Z,1.73
2023-10-20T15:20:32.218Z,1.10
2023-10-20T15:23:16.406Z,2.33
2023-10-20T15:25:44.944Z,7.93
2023-10-20T15:28:11.499Z,1.13
2023-10-20T15:30:38.225Z,1.08
2023-10-20T15:33:06.747Z,1.90
2023-10-20T15:35:38.568Z,2.83
2023-10-20T15:38:05.097Z,3.42
2023-10-20T15:40:37.215Z,3.75
2023-10-20T15:43:32.425Z,5.00
2023-10-20T15:46:03.908Z,3.63
2023-10-20T15:48:38.266Z,5.40
2023-10-20T15:51:08.469Z,2.05
2023-10-20T15:53:35.095Z,1.35
2023-10-20T15:56:13.928Z,1.63
2023-10-20T15:58:40.343Z,1.15
2023-10-20T16:01:10.639Z,2.67
2023-10-20T16:03:37.438Z,1.40
2023-10-20T16:06:04.306Z,1.80
2023-10-20T16:08:37.787Z,3.47
2023-10-20T16:11:06.373Z,2.17
2023-10-20T16:13:33.025Z,6.15
2023-10-20T16:15:59.495Z,2.42
2023-10-20T16:23:49.606Z,2.42
2023-10-20T16:26:28.456Z,10.85
2023-10-20T16:28:55.153Z,3.15
2023-10-20T16:31:23.212Z,2.00
2023-10-20T16:33:49.890Z,6.80
2023-10-20T16:36:16.572Z,7.95
2023-10-20T16:39:11.472Z,4.57
2023-10-20T16:45:34.250Z,3.88
2023-10-20T16:48:05.574Z,8.63
2023-10-20T16:50:47.899Z,12.88
2023-10-20T16:53:52.559Z,7.65
2023-10-20T16:56:19.278Z,5.57
2023-10-20T16:58:45.833Z,5.22
2023-10-20T17:01:12.308Z,7.22
2023-10-20T17:03:38.948Z,5.05
2023-10-20T17:06:08.547Z,6.18
2023-10-20T17:08:35.063Z,7.80
2023-10-20T17:11:05.850Z,12.18
2023-10-20T17:13:33.435Z,7.28
2023-10-20T17:16:08.797Z,5.40
2023-10-20T17:18:36.335Z,10.32
2023-10-20T17:21:10.368Z,9.18
2023-10-20T17:23:37.032Z,13.18
2023-10-20T17:26:04.962Z,6.20
2023-10-20T17:31:14.627Z,7.97
2023-10-20T17:33:41.239Z,10.35
2023-10-20T17:36:10.999Z,4.60
2023-10-20T17:38:48.246Z,4.20
2023-10-20T17:41:14.982Z,4.90
2023-10-20T17:43:41.788Z,6.78
2023-10-20T17:46:12.101Z,5.72
2023-10-20T17:48:52.774Z,8.18
2023-10-20T17:53:59.724Z,5.78
2023-10-20T18:00:11.910Z,6.18
2023-10-20T18:02:41.622Z,9.05
2023-10-20T18:05:08.647Z,9.10
2023-10-20T18:07:35.304Z,8.32
2023-10-20T18:10:02.143Z,8.55
2023-10-20T18:12:28.714Z,11.25
2023-10-20T18:14:55.333Z,11.68
2023-10-20T18:17:21.860Z,9.35
2023-10-20T18:19:48.394Z,8.85
2023-10-20T18:22:17.009Z,9.45
2023-10-20T18:24:46.482Z,9.48
2023-10-20T18:27:13.157Z,13.57
2023-10-20T18:29:39.850Z,10.48
2023-10-20T18:32:06.602Z,9.88
2023-10-20T18:34:33.040Z,9.35
2023-10-20T18:36:59.442Z,9.48
2023-10-20T18:39:25.933Z,8.25
2023-10-20T18:41:55.082Z,7.82
2023-10-20T18:44:21.622Z,9.45
2023-10-20T18:46:48.040Z,8.10
2023-10-20T18:49:14.471Z,8.25
2023-10-20T18:51:43.290Z,13.50
2023-10-20T18:54:10.208Z,15.35
2023-10-20T18:56:36.714Z,21.73
2023-10-20T18:59:03.561Z,15.93
2023-10-20T19:01:30.036Z,19.67
2023-10-20T19:03:56.599Z,15.18
2023-10-20T19:06:25.127Z,13.77
2023-10-20T19:08:51.573Z,12.77
2023-10-20T19:11:18.820Z,12.00
2023-10-20T19:13:45.262Z,14.60
2023-10-20T19:16:11.707Z,14.55
2023-10-20T19:18:38.456Z,11.35
2023-10-20T19:21:08.868Z,14.88
2023-10-20T19:23:35.639Z,24.48
2023-10-20T19:26:09.520Z,17.48
2023-10-20T19:28:39.106Z,15.85
2023-10-20T19:31:09.351Z,23.70
2023-10-20T19:33:36.950Z,20.52
2023-10-20T19:36:05.731Z,20.15
2023-10-20T19:38:35.433Z,20.65
2023-10-20T19:41:05.957Z,27.00
2023-10-20T19:43:32.409Z,27.42
2023-10-20T19:45:59.109Z,27.38
2023-10-20T19:48:25.668Z,31.05
2023-10-20T19:50:57.457Z,26.23
2023-10-20T19:53:24.215Z,27.73
2023-10-20T19:55:56.694Z,29.63
2023-10-20T19:58:23.426Z,30.98
2023-10-20T20:00:49.985Z,32.38
2023-10-20T20:03:16.581Z,32.85
2023-10-20T20:05:45.449Z,35.28
2023-10-20T20:08:12.078Z,34.20
2023-10-20T20:10:38.523Z,42.78
2023-10-20T20:13:07.723Z,35.83
2023-10-20T20:15:34.226Z,39.53
2023-10-20T20:18:00.762Z,36.28
2023-10-20T20:20:30.197Z,39.17
2023-10-20T20:22:56.606Z,41.05
2023-10-20T20:25:25.768Z,40.05
2023-10-20T20:27:57.862Z,39.28
2023-10-20T20:30:30.642Z,36.00
2023-10-20T20:32:57.147Z,37.55
2023-10-20T20:35:23.646Z,35.20
2023-10-20T20:37:56.160Z,33.65
2023-10-20T20:40:22.823Z,40.00
2023-10-20T20:42:49.367Z,36.65
2023-10-20T20:45:15.978Z,36.50
2023-10-20T20:47:57.627Z,31.65
2023-10-20T20:50:32.865Z,34.38
2023-10-20T20:53:07.702Z,34.90
2023-10-20T20:55:37.282Z,40.60
2023-10-20T20:58:24.064Z,37.67
2023-10-20T21:00:52.764Z,33.58
2023-10-20T21:03:19.404Z,35.95
2023-10-20T21:06:04.642Z,34.17
2023-10-20T21:08:31.262Z,34.50
2023-10-20T21:11:30.231Z,35.58
2023-10-20T21:16:52.120Z,35.25
2023-10-20T21:19:31.556Z,32.15
2023-10-20T21:22:07.015Z,29.90
2023-10-20T21:24:33.646Z,30.45
2023-10-20T21:27:00.265Z,33.40
2023-10-20T21:29:28.496Z,37.25
2023-10-20T21:31:55.528Z,32.22
2023-10-20T21:34:22.747Z,29.35
2023-10-20T21:36:56.343Z,36.45
2023-10-20T21:39:22.846Z,27.30
2023-10-20T21:41:49.276Z,27.20
2023-10-20T21:44:18.946Z,30.55
2023-10-20T21:46:48.872Z,28.88
2023-10-20T21:49:15.838Z,26.42
2023-10-20T21:51:42.322Z,27.88
2023-10-20T21:54:09.023Z,30.30
2023-10-20T21:56:35.586Z,35.30
2023-10-20T21:59:02.246Z,25.25
2023-10-20T22:01:28.806Z,24.60
2023-10-20T22:03:55.284Z,27.67
2023-10-20T22:06:21.924Z,24.92
2023-10-20T22:08:48.504Z,22.15
2023-10-20T22:11:14.973Z,25.25
2023-10-20T22:13:41.461Z,23.35
2023-10-20T22:16:08.250Z,21.95
2023-10-20T22:18:37.909Z,36.67
2023-10-20T22:21:07.100Z,26.42
2023-10-20T22:23:35.972Z,26.30
2023-10-20T22:26:02.540Z,24.17
2023-10-20T22:28:31.215Z,26.50
2023-10-20T22:30:58.933Z,20.45
2023-10-20T22:33:25.443Z,23.15
2023-10-20T22:35:54.072Z,28.10
2023-10-20T22:38:20.709Z,29.08
2023-10-20T22:40:47.120Z,20.65
2023-10-20T22:43:13.751Z,22.90
2023-10-20T22:45:40.925Z,22.83
2023-10-20T22:48:07.665Z,21.42
2023-10-20T22:50:34.155Z,19.05
2023-10-20T22:53:00.601Z,22.75
2023-10-20T22:55:27.201Z,23.58
2023-10-20T22:57:56.515Z,30.95
2023-10-20T23:00:23.074Z,22.40
2023-10-20T23:02:49.862Z,22.40
2023-10-20T23:05:19.513Z,22.80
2023-10-20T23:07:46.194Z,21.73
2023-10-20T23:10:12.631Z,23.88
2023-10-20T23:12:39.056Z,20.75
2023-10-20T23:15:09.634Z,19.52
2023-10-20T23:17:37.040Z,21.27
2023-10-20T23:20:03.741Z,19.25
2023-10-20T23:22:31.072Z,24.48
2023-10-20T23:24:57.771Z,24.15
2023-10-20T23:27:24.284Z,15.13
2023-10-20T23:29:50.926Z,21.40
2023-10-20T23:32:17.591Z,24.10
2023-10-20T23:34:44.090Z,18.40
2023-10-20T23:37:10.639Z,21.85
2023-10-20T23:39:37.579Z,16.65
2023-10-20T23:42:07.049Z,22.75
2023-10-20T23:44:33.653Z,15.45
2023-10-20T23:47:00.300Z,12.93
2023-10-20T23:49:26.902Z,22.63
2023-10-20T23:51:55.955Z,18.85
2023-10-20T23:54:22.496Z,17.40
2023-10-20T23:56:49.020Z,17.95
2023-10-20T23:59:15.602Z,14.18
